Time;durP1;ratioP1;P1;durP2;ratioP2;P2;SDS_P1;SDS_P2;PMS_P1;PMS_P2;Temp;Humidity;BMP_temperature;BMP_pressure;BME280_temperature;BME280_humidity;BME280_pressure;Samples;Min_cycle;Max_cycle;Signal;HPM_P1;HPM_P2
2023/08/16 00:01:18;;;;;;;4.40;3.58;;;24.10;99.90;;;;;;4993073;28;20209;-74
2023/08/16 00:03:44;;;;;;;4.95;3.70;;;24.10;99.90;;;;;;4995582;28;20405;-74
2023/08/16 00:06:14;;;;;;;4.40;3.60;;;24.10;99.90;;;;;;4994634;28;20297;-75
2023/08/16 00:08:40;;;;;;;5.38;4.10;;;24.10;99.90;;;;;;4991322;28;20220;-75
2023/08/16 00:11:07;;;;;;;5.00;3.75;;;24.00;99.90;;;;;;4986000;28;20206;-74
2023/08/16 00:13:33;;;;;;;5.15;3.67;;;24.10;99.90;;;;;;4993023;28;20289;-74
2023/08/16 00:16:01;;;;;;;5.85;4.13;;;24.10;99.90;;;;;;4986094;28;20174;-74
2023/08/16 00:18:27;;;;;;;4.70;4.20;;;24.10;99.90;;;;;;4985981;28;20209;-74
2023/08/16 00:20:53;;;;;;;5.82;3.97;;;24.10;99.90;;;;;;4983851;28;20359;-74
2023/08/16 00:23:18;;;;;;;4.80;4.10;;;24.10;99.90;;;;;;4982013;28;20226;-74
2023/08/16 00:25:44;;;;;;;6.28;3.75;;;24.20;99.90;;;;;;4995732;28;20263;-74
2023/08/16 00:28:10;;;;;;;3.83;3.53;;;24.20;99.90;;;;;;4999994;28;20343;-75
2023/08/16 00:30:36;;;;;;;5.80;3.92;;;24.20;99.90;;;;;;4998659;28;20209;-74
2023/08/16 00:33:01;;;;;;;4.28;3.88;;;24.10;99.90;;;;;;4996546;28;20201;-74
2023/08/16 00:35:27;;;;;;;4.43;3.47;;;24.10;99.90;;;;;;4998336;28;20216;-74
2023/08/16 00:37:52;;;;;;;4.18;3.15;;;24.10;99.90;;;;;;4995170;28;20214;-75
2023/08/16 00:40:20;;;;;;;4.35;3.95;;;24.10;99.90;;;;;;4991657;28;20264;-74
2023/08/16 00:42:45;;;;;;;6.28;3.58;;;24.10;99.90;;;;;;4995303;28;20214;-73
2023/08/16 00:45:11;;;;;;;4.85;4.03;;;24.10;99.90;;;;;;4990597;28;20233;-74
2023/08/16 00:47:37;;;;;;;5.18;3.50;;;24.00;99.90;;;;;;4997679;28;20252;-74
2023/08/16 00:50:03;;;;;;;3.50;3.20;;;24.00;99.90;;;;;;4988723;28;20654;-74
2023/08/16 00:52:29;;;;;;;4.50;3.17;;;24.00;99.90;;;;;;4989719;28;20177;-74
2023/08/16 00:54:56;;;;;;;4.35;3.53;;;23.90;99.90;;;;;;4986695;28;20190;-74
2023/08/16 00:57:22;;;;;;;3.90;3.50;;;23.90;99.90;;;;;;4986583;28;20225;-74
2023/08/16 00:59:47;;;;;;;3.67;3.20;;;23.80;99.90;;;;;;4983396;28;20210;-74
2023/08/16 01:02:14;;;;;;;3.95;3.53;;;23.70;99.90;;;;;;4986843;28;20214;-74
2023/08/16 01:04:42;;;;;;;4.45;3.65;;;23.80;99.90;;;;;;4982324;28;20728;-74
2023/08/16 01:07:07;;;;;;;6.25;3.80;;;23.80;99.90;;;;;;4998997;28;20264;-71
2023/08/16 01:09:33;;;;;;;3.92;3.55;;;23.80;99.90;;;;;;5001205;28;20359;-73
2023/08/16 01:12:04;;;;;;;5.22;3.58;;;23.70;99.90;;;;;;4996808;28;20213;-75
2023/08/16 01:14:44;;;;;;;5.05;4.13;;;23.60;99.90;;;;;;4995181;28;20206;-74
2023/08/16 01:17:12;;;;;;;7.32;4.30;;;23.60;99.90;;;;;;4990882;28;20216;-74
2023/08/16 01:19:39;;;;;;;5.80;4.07;;;23.50;99.90;;;;;;4995014;28;20193;-74
2023/08/16 01:22:42;;;;;;;5.28;4.78;;;23.50;99.90;;;;;;4991227;28;20165;-74
2023/08/16 01:25:08;;;;;;;6.80;4.25;;;23.50;99.90;;;;;;4989957;28;20240;-72
2023/08/16 01:27:35;;;;;;;7.30;4.60;;;23.40;99.90;;;;;;4989755;28;20241;-74
2023/08/16 01:30:03;;;;;;;4.53;3.92;;;23.40;99.90;;;;;;4986039;28;20595;-74
2023/08/16 01:32:28;;;;;;;6.18;4.25;;;23.30;99.90;;;;;;4987350;28;20205;-74
2023/08/16 01:34:54;;;;;;;6.78;4.38;;;23.30;99.90;;;;;;4984706;28;20213;-73
2023/08/16 01:37:20;;;;;;;4.78;4.25;;;23.30;99.90;;;;;;4983222;28;20182;-74
2023/08/16 01:39:49;;;;;;;7.55;5.05;;;23.40;99.90;;;;;;4984241;28;20221;-74
2023/08/16 01:42:17;;;;;;;6.90;5.00;;;23.40;99.90;;;;;;4980555;28;20650;-73
2023/08/16 01:44:44;;;;;;;7.05;4.55;;;23.40;99.90;;;;;;4986855;28;20580;-73
2023/08/16 01:47:12;;;;;;;6.68;4.70;;;23.50;99.90;;;;;;4994253;28;20640;-73
2023/08/16 01:49:40;;;;;;;4.80;4.07;;;23.40;99.90;;;;;;4999864;28;20189;-73
2023/08/16 01:52:06;;;;;;;4.43;4.03;;;23.30;99.90;;;;;;4994670;28;20184;-73
2023/08/16 01:54:31;;;;;;;6.55;4.70;;;23.20;99.90;;;;;;4996328;28;20231;-74
2023/08/16 01:56:57;;;;;;;4.80;4.22;;;23.30;99.90;;;;;;4994115;28;20672;-73
2023/08/16 01:59:23;;;;;;;7.65;4.90;;;23.20;99.90;;;;;;4995600;28;20250;-72
2023/08/16 02:01:48;;;;;;;6.40;4.45;;;23.20;99.90;;;;;;4998002;28;20695;-73
2023/08/16 02:04:14;;;;;;;5.20;4.50;;;23.20;99.90;;;;;;4994272;28;20210;-73
2023/08/16 02:06:40;;;;;;;5.00;4.47;;;23.10;99.90;;;;;;4994839;28;20197;-73
2023/08/16 02:09:06;;;;;;;6.97;4.10;;;23.10;99.90;;;;;;4990940;28;20585;-74
2023/08/16 02:11:31;;;;;;;5.78;4.65;;;23.20;99.90;;;;;;4992885;28;20205;-73
2023/08/16 02:13:57;;;;;;;5.88;4.38;;;23.20;99.90;;;;;;4988282;28;20688;-73
2023/08/16 02:16:24;;;;;;;6.50;4.38;;;23.10;99.90;;;;;;4986183;28;20559;-73
2023/08/16 02:18:51;;;;;;;5.28;4.60;;;23.00;99.90;;;;;;4987244;28;20569;-73
2023/08/16 02:21:17;;;;;;;6.43;5.10;;;23.00;99.90;;;;;;4985720;28;20753;-73
2023/08/16 02:23:43;;;;;;;6.63;4.40;;;23.00;99.90;;;;;;4986129;28;20329;-73
2023/08/16 02:26:08;;;;;;;7.35;4.47;;;22.90;99.90;;;;;;4998206;28;20263;-73
2023/08/16 02:28:34;;;;;;;5.18;4.53;;;23.00;99.90;;;;;;5004554;28;20184;-74
2023/08/16 02:31:06;;;;;;;7.60;4.97;;;23.00;99.90;;;;;;5030807;23;20367;-74
2023/08/16 02:33:35;;;;;;;6.32;4.47;;;23.00;99.90;;;;;;5012868;28;20719;-76
2023/08/16 02:36:02;;;;;;;8.40;4.30;;;22.90;99.90;;;;;;5014642;28;20303;-74
2023/08/16 02:38:28;;;;;;;5.72;4.78;;;23.00;99.90;;;;;;5011360;28;20208;-74
2023/08/16 02:40:54;;;;;;;5.18;4.32;;;23.00;99.90;;;;;;5012722;28;20224;-74
2023/08/16 02:43:20;;;;;;;7.82;5.13;;;22.90;99.90;;;;;;4985541;28;20233;-73
2023/08/16 02:45:46;;;;;;;6.43;4.75;;;23.00;99.90;;;;;;4994001;28;20668;-74
2023/08/16 02:48:11;;;;;;;7.50;5.00;;;23.00;99.90;;;;;;4993944;28;20206;-74
2023/08/16 02:50:37;;;;;;;7.95;5.15;;;23.00;99.90;;;;;;4992474;28;20205;-74
2023/08/16 02:53:03;;;;;;;7.80;5.07;;;23.00;99.90;;;;;;4995147;28;20643;-75
2023/08/16 02:55:29;;;;;;;6.22;5.20;;;23.00;99.90;;;;;;4992302;28;20175;-74
2023/08/16 02:57:55;;;;;;;7.82;5.22;;;23.00;99.90;;;;;;4991192;28;20166;-74
2023/08/16 03:00:21;;;;;;;8.60;5.20;;;23.00;99.90;;;;;;4990441;28;20224;-73
2023/08/16 03:02:46;;;;;;;7.40;5.40;;;23.00;99.90;;;;;;4985210;28;20217;-73
2023/08/16 03:05:12;;;;;;;6.70;5.53;;;22.90;99.90;;;;;;4990838;28;20202;-74
2023/08/16 03:07:39;;;;;;;6.40;5.25;;;22.90;99.90;;;;;;5001122;28;20173;-75
2023/08/16 03:10:05;;;;;;;8.52;5.50;;;22.90;99.90;;;;;;5000328;28;20672;-74
2023/08/16 03:12:31;;;;;;;5.85;5.22;;;23.00;99.90;;;;;;4997238;28;20270;-74
2023/08/16 03:14:57;;;;;;;7.88;5.18;;;23.00;99.90;;;;;;5005206;28;20736;-74
2023/08/16 03:17:24;;;;;;;6.13;5.43;;;23.10;99.90;;;;;;4999077;28;20279;-72
2023/08/16 03:19:49;;;;;;;5.78;5.10;;;23.10;99.90;;;;;;5000764;28;20217;-74
2023/08/16 03:22:15;;;;;;;9.43;5.55;;;23.00;99.90;;;;;;4991574;28;20706;-75
2023/08/16 03:24:40;;;;;;;8.43;5.80;;;23.00;99.90;;;;;;4992469;28;20209;-75
2023/08/16 03:27:06;;;;;;;6.47;5.68;;;23.00;99.90;;;;;;4988724;28;20336;-74
2023/08/16 03:29:32;;;;;;;7.20;5.72;;;23.00;99.90;;;;;;4990323;28;20247;-73
2023/08/16 03:31:57;;;;;;;7.75;5.97;;;22.90;99.90;;;;;;4990564;28;20197;-75
2023/08/16 03:34:24;;;;;;;6.32;5.72;;;22.90;99.90;;;;;;4988097;28;20190;-76
2023/08/16 03:36:49;;;;;;;6.43;5.60;;;22.90;99.90;;;;;;4994210;28;20671;-75
2023/08/16 03:39:15;;;;;;;8.82;6.03;;;22.90;99.90;;;;;;4991431;28;20304;-74
2023/08/16 03:41:41;;;;;;;9.13;6.35;;;22.90;99.90;;;;;;4993468;28;20878;-74
2023/08/16 03:44:06;;;;;;;7.22;6.30;;;23.00;99.90;;;;;;4993908;28;20275;-74
2023/08/16 03:46:34;;;;;;;8.23;6.10;;;23.00;99.90;;;;;;4998610;28;20185;-75
2023/08/16 03:48:59;;;;;;;7.68;5.85;;;22.90;99.90;;;;;;5003909;28;20174;-75
2023/08/16 03:51:25;;;;;;;7.07;6.40;;;22.90;99.90;;;;;;4998797;28;20313;-77
2023/08/16 03:53:50;;;;;;;9.45;6.40;;;23.00;99.90;;;;;;4993790;28;20216;-75
2023/08/16 03:56:16;;;;;;;7.00;6.10;;;23.00;99.90;;;;;;4993773;28;20220;-77
2023/08/16 03:58:42;;;;;;;7.47;6.32;;;23.00;99.90;;;;;;5001214;28;20292;-75
2023/08/16 04:01:08;;;;;;;8.20;6.20;;;22.90;99.90;;;;;;4988304;28;20241;-75
2023/08/16 04:03:33;;;;;;;7.93;6.30;;;22.90;99.90;;;;;;5000174;28;20232;-76
2023/08/16 04:05:59;;;;;;;8.57;6.93;;;22.90;99.90;;;;;;4992523;28;20573;-75
2023/08/16 04:08:24;;;;;;;7.00;6.28;;;22.80;99.90;;;;;;4993031;28;20751;-75
2023/08/16 04:10:50;;;;;;;8.13;6.47;;;22.80;99.90;;;;;;4988702;28;20217;-75
2023/08/16 04:13:16;;;;;;;11.18;7.35;;;22.80;99.90;;;;;;4990376;28;20188;-75
2023/08/16 04:15:42;;;;;;;7.72;6.68;;;22.80;99.90;;;;;;4993482;28;20640;-75
2023/08/16 04:18:08;;;;;;;7.85;6.68;;;22.80;99.90;;;;;;4989834;28;20217;-75
2023/08/16 04:20:34;;;;;;;7.25;6.07;;;22.80;99.90;;;;;;4984676;28;20216;-74
2023/08/16 04:23:00;;;;;;;7.05;6.15;;;22.80;99.90;;;;;;4988224;28;20225;-75
2023/08/16 04:25:26;;;;;;;9.98;7.13;;;22.80;99.90;;;;;;4998597;28;20196;-77
2023/08/16 04:27:51;;;;;;;9.02;6.60;;;22.80;99.90;;;;;;4994011;28;20173;-75
2023/08/16 04:30:17;;;;;;;9.32;6.65;;;22.80;99.90;;;;;;4987858;28;20261;-74
2023/08/16 04:32:42;;;;;;;9.00;6.47;;;22.80;99.90;;;;;;4999780;28;20209;-75
2023/08/16 04:35:09;;;;;;;10.18;6.35;;;22.90;99.90;;;;;;4993355;28;20264;-76
2023/08/16 04:37:34;;;;;;;9.13;6.88;;;22.80;99.90;;;;;;4991435;28;20553;-75
2023/08/16 04:40:00;;;;;;;7.38;5.93;;;22.80;99.90;;;;;;4997910;28;20281;-75
2023/08/16 04:42:26;;;;;;;8.75;6.30;;;22.80;99.90;;;;;;4992648;28;20234;-75
2023/08/16 04:44:52;;;;;;;7.45;6.32;;;22.80;99.90;;;;;;4998820;28;20202;-75
2023/08/16 04:47:18;;;;;;;9.23;6.40;;;22.70;99.90;;;;;;4997136;28;20289;-75
2023/08/16 04:49:43;;;;;;;8.80;5.72;;;22.70;99.90;;;;;;4993214;28;20757;-75
2023/08/16 04:52:09;;;;;;;7.07;6.18;;;22.70;99.90;;;;;;4986511;28;20177;-74
2023/08/16 04:54:34;;;;;;;9.63;7.45;;;22.80;99.90;;;;;;4985392;28;20651;-73
2023/08/16 04:57:00;;;;;;;8.25;7.45;;;22.80;99.90;;;;;;4988906;28;20209;-73
2023/08/16 04:59:26;;;;;;;9.10;8.10;;;22.80;99.90;;;;;;4987785;28;20613;-73
2023/08/16 05:01:51;;;;;;;8.13;7.18;;;22.90;99.90;;;;;;4982372;28;20205;-76
2023/08/16 05:04:17;;;;;;;9.65;8.02;;;22.90;99.90;;;;;;4987323;28;20209;-75
2023/08/16 05:06:43;;;;;;;9.85;7.28;;;22.80;99.90;;;;;;4991102;28;20201;-75
2023/08/16 05:09:08;;;;;;;10.48;8.13;;;22.80;99.90;;;;;;4987319;28;20229;-74
2023/08/16 05:11:35;;;;;;;8.40;7.40;;;22.70;99.90;;;;;;5003744;28;20217;-76
2023/08/16 05:14:00;;;;;;;9.65;7.90;;;22.80;99.90;;;;;;4984856;28;20214;-74
2023/08/16 05:16:26;;;;;;;9.57;8.15;;;22.80;99.90;;;;;;4990565;28;20312;-77
2023/08/16 05:18:57;;;;;;;9.73;7.38;;;22.90;99.90;;;;;;4991959;28;20185;-76
2023/08/16 05:21:23;;;;;;;10.73;8.10;;;22.90;99.90;;;;;;4987308;28;20210;-75
2023/08/16 05:23:48;;;;;;;11.13;8.75;;;23.20;99.90;;;;;;4989162;28;20218;-78
2023/08/16 05:26:14;;;;;;;9.88;7.20;;;23.40;99.90;;;;;;4991419;28;20214;-77
2023/08/16 05:28:40;;;;;;;11.05;7.20;;;23.70;99.90;;;;;;5001528;28;20554;-76
2023/08/16 05:31:07;;;;;;;9.38;6.85;;;23.90;99.90;;;;;;4984156;28;20703;-74
2023/08/16 05:33:33;;;;;;;7.90;6.90;;;24.00;99.90;;;;;;4987417;28;20210;-76
2023/08/16 05:35:59;;;;;;;7.82;7.03;;;24.10;99.90;;;;;;4983557;28;20532;-76
2023/08/16 05:38:25;;;;;;;9.77;6.90;;;24.30;99.90;;;;;;4986190;28;20216;-75
2023/08/16 05:40:51;;;;;;;8.27;6.70;;;24.20;99.90;;;;;;4981497;28;20213;-75
2023/08/16 05:43:17;;;;;;;8.85;7.30;;;24.10;99.90;;;;;;4994875;28;20220;-73
2023/08/16 05:45:42;;;;;;;9.10;7.30;;;24.10;99.90;;;;;;4990751;28;20202;-76
2023/08/16 05:48:08;;;;;;;9.02;8.13;;;24.10;99.90;;;;;;4986042;28;20633;-77
2023/08/16 05:50:35;;;;;;;7.60;6.80;;;23.90;99.90;;;;;;4989924;28;20642;-76
2023/08/16 05:53:01;;;;;;;8.93;6.90;;;23.90;99.90;;;;;;4988948;28;20217;-75
2023/08/16 05:55:26;;;;;;;13.02;8.05;;;23.90;99.90;;;;;;4987239;28;20170;-76
2023/08/16 05:57:52;;;;;;;9.07;7.38;;;24.00;99.90;;;;;;4989977;28;20178;-75
2023/08/16 06:00:18;;;;;;;9.60;8.60;;;23.90;99.90;;;;;;4987310;28;20214;-75
2023/08/16 06:02:43;;;;;;;11.13;9.25;;;24.00;99.90;;;;;;4990436;28;20244;-76
2023/08/16 06:05:09;;;;;;;11.68;9.80;;;24.20;99.90;;;;;;4986951;28;20303;-76
2023/08/16 06:07:35;;;;;;;11.07;9.93;;;24.10;99.90;;;;;;4987889;28;20991;-76
2023/08/16 06:10:01;;;;;;;12.73;10.10;;;24.20;99.90;;;;;;4987621;28;20240;-76
2023/08/16 06:12:27;;;;;;;11.93;10.63;;;24.30;99.90;;;;;;4988831;28;20209;-75
2023/08/16 06:14:52;;;;;;;13.18;10.20;;;24.50;99.90;;;;;;4984138;28;20205;-75
2023/08/16 06:17:18;;;;;;;12.55;10.25;;;24.90;99.90;;;;;;4983880;28;20210;-76
2023/08/16 06:19:43;;;;;;;10.52;9.45;;;25.40;99.90;;;;;;4990704;28;20214;-77
2023/08/16 06:22:09;;;;;;;11.23;10.02;;;26.50;99.90;;;;;;4983404;28;20257;-79
2023/08/16 06:24:36;;;;;;;11.18;9.38;;;27.20;99.90;;;;;;4986344;28;20210;-75
2023/08/16 06:27:01;;;;;;;11.88;9.10;;;27.40;99.90;;;;;;4989992;28;20208;-78
2023/08/16 06:29:27;;;;;;;9.10;8.20;;;27.40;99.90;;;;;;4988771;28;20214;-77
2023/08/16 06:31:55;;;;;;;9.68;8.68;;;27.10;99.90;;;;;;4987846;28;20275;-77
2023/08/16 06:34:21;;;;;;;9.93;7.55;;;27.30;99.90;;;;;;4989913;28;20664;-77
2023/08/16 06:36:49;;;;;;;12.18;8.30;;;27.10;99.90;;;;;;4992050;28;20244;-77
2023/08/16 06:39:14;;;;;;;9.80;8.30;;;26.80;99.90;;;;;;4992293;28;20213;-77
2023/08/16 06:41:40;;;;;;;9.95;7.57;;;26.70;99.90;;;;;;4988261;28;20526;-77
2023/08/16 06:44:06;;;;;;;10.90;8.25;;;26.70;99.90;;;;;;4984117;28;20242;-77
2023/08/16 06:46:31;;;;;;;42.13;12.75;;;26.40;99.90;;;;;;5002707;28;20186;-77
2023/08/16 06:48:58;;;;;;;9.73;8.25;;;25.90;99.90;;;;;;4989330;28;20699;-76
2023/08/16 06:51:24;;;;;;;11.98;7.78;;;25.80;99.90;;;;;;4990753;28;20241;-76
2023/08/16 06:53:50;;;;;;;12.40;8.45;;;25.70;99.90;;;;;;4986316;28;20210;-77
2023/08/16 06:56:16;;;;;;;12.20;7.93;;;25.90;99.90;;;;;;5001691;28;20218;-77
2023/08/16 06:58:42;;;;;;;12.45;9.75;;;26.10;99.90;;;;;;4989114;28;20288;-77
2023/08/16 07:01:08;;;;;;;14.38;11.73;;;26.50;99.90;;;;;;4983314;28;20695;-77
2023/08/16 07:03:34;;;;;;;16.80;10.70;;;26.80;99.90;;;;;;4992346;28;20577;-77
2023/08/16 07:06:00;;;;;;;14.85;10.00;;;27.10;99.90;;;;;;4992977;28;20205;-76
2023/08/16 07:08:26;;;;;;;13.52;9.27;;;27.50;99.90;;;;;;4991981;28;20214;-77
2023/08/16 07:10:52;;;;;;;12.27;8.20;;;27.40;99.90;;;;;;4992860;28;20288;-78
2023/08/16 07:13:18;;;;;;;10.75;7.93;;;27.70;99.90;;;;;;4992427;28;20185;-76
2023/08/16 07:15:43;;;;;;;9.32;7.45;;;28.40;99.90;;;;;;4990880;28;20264;-78
2023/08/16 07:18:09;;;;;;;14.32;8.50;;;30.00;99.90;;;;;;4990167;28;20224;-77
2023/08/16 07:20:35;;;;;;;10.40;6.70;;;31.20;99.90;;;;;;4987051;28;20308;-74
2023/08/16 07:23:01;;;;;;;7.65;6.57;;;31.70;99.90;;;;;;4989042;28;20241;-75
2023/08/16 07:25:27;;;;;;;8.73;6.10;;;32.00;99.90;;;;;;4988885;28;20181;-74
2023/08/16 07:27:53;;;;;;;6.97;6.28;;;32.10;99.90;;;;;;4988839;28;20668;-75
2023/08/16 07:30:18;;;;;;;7.25;6.45;;;32.60;99.90;;;;;;4982833;28;20222;-76
2023/08/16 07:32:44;;;;;;;6.82;5.70;;;33.00;99.90;;;;;;4989507;28;20813;-75
2023/08/16 07:35:10;;;;;;;8.27;5.68;;;32.50;99.90;;;;;;4984371;28;20221;-74
2023/08/16 07:37:37;;;;;;;7.50;5.68;;;32.30;99.90;;;;;;4990497;28;20182;-75
2023/08/16 07:40:04;;;;;;;6.22;5.60;;;32.10;99.90;;;;;;4989188;28;20201;-77
2023/08/16 07:42:31;;;;;;;7.43;5.75;;;31.50;99.90;;;;;;4983030;28;20221;-76
2023/08/16 07:45:02;;;;;;;9.65;5.57;;;31.30;99.90;;;;;;4991195;28;20280;-75
2023/08/16 07:47:28;;;;;;;10.85;8.30;;;31.20;99.90;;;;;;4991586;28;20266;-76
2023/08/16 07:49:54;;;;;;;11.00;8.85;;;31.40;99.90;;;;;;4991413;28;20303;-78
2023/08/16 07:52:20;;;;;;;9.82;6.22;;;31.30;99.90;;;;;;4989893;28;20176;-74
2023/08/16 07:54:46;;;;;;;6.75;5.57;;;30.90;99.90;;;;;;4988930;28;20213;-77
2023/08/16 07:57:11;;;;;;;6.45;4.82;;;30.40;99.90;;;;;;4987700;28;20205;-76
2023/08/16 07:59:38;;;;;;;8.77;5.57;;;30.20;99.90;;;;;;4987616;28;20293;-75
2023/08/16 08:02:05;;;;;;;8.90;5.20;;;29.90;99.90;;;;;;4990600;28;20698;-77
2023/08/16 08:04:32;;;;;;;8.68;5.78;;;29.60;99.90;;;;;;4986104;28;20237;-76
2023/08/16 08:06:58;;;;;;;9.90;5.78;;;29.40;99.90;;;;;;4986129;28;20668;-76
2023/08/16 08:09:24;;;;;;;9.88;7.18;;;29.20;99.90;;;;;;4983280;28;20210;-73
2023/08/16 08:11:49;;;;;;;12.63;5.07;;;28.80;99.90;;;;;;4984663;28;20209;-76
2023/08/16 08:14:16;;;;;;;7.10;4.88;;;28.70;99.90;;;;;;4982924;28;20297;-76
2023/08/16 08:16:41;;;;;;;5.80;4.78;;;28.90;99.90;;;;;;4999109;28;22409;-76
2023/08/16 08:19:07;;;;;;;12.30;5.10;;;28.80;99.90;;;;;;4983064;28;20260;-77
2023/08/16 08:21:33;;;;;;;11.65;5.40;;;28.60;99.90;;;;;;4990422;28;20217;-76
2023/08/16 08:23:59;;;;;;;12.20;5.43;;;28.60;99.90;;;;;;4991209;28;20224;-76
2023/08/16 08:26:26;;;;;;;6.05;4.07;;;28.50;99.90;;;;;;4989595;28;20849;-74
2023/08/16 08:28:52;;;;;;;6.45;4.10;;;28.30;99.90;;;;;;4988758;28;20297;-76
2023/08/16 08:31:17;;;;;;;5.00;4.10;;;28.60;99.90;;;;;;4989784;28;20329;-77
2023/08/16 08:33:45;;;;;;;5.72;4.43;;;28.80;99.90;;;;;;4991355;28;20236;-74
2023/08/16 08:36:11;;;;;;;9.43;5.00;;;28.80;99.90;;;;;;4988084;28;20229;-74
2023/08/16 08:38:37;;;;;;;6.63;4.82;;;28.80;99.90;;;;;;4991646;28;20570;-74
2023/08/16 08:41:03;;;;;;;6.97;5.07;;;28.60;99.90;;;;;;4986789;28;20231;-74
2023/08/16 08:43:48;;;;;;;7.95;4.57;;;28.50;99.90;;;;;;4986212;28;20218;-74
2023/08/16 08:46:13;;;;;;;6.00;3.58;;;28.40;99.90;;;;;;5000609;28;20186;-74
2023/08/16 08:48:40;;;;;;;6.63;3.97;;;28.40;99.90;;;;;;4983597;28;20206;-73
2023/08/16 08:51:05;;;;;;;6.05;3.95;;;28.40;99.90;;;;;;4983694;28;20205;-74
2023/08/16 08:53:31;;;;;;;4.18;3.67;;;28.50;99.90;;;;;;4980945;28;20598;-74
2023/08/16 08:56:07;;;;;;;8.38;5.90;;;28.50;99.90;;;;;;4983079;28;20206;-74
2023/08/16 08:58:33;;;;;;;15.27;7.80;;;28.70;99.90;;;;;;4989611;28;20185;-74
2023/08/16 09:01:01;;;;;;;7.20;5.13;;;28.70;99.90;;;;;;4992475;28;20206;-75
2023/08/16 09:03:30;;;;;;;6.82;4.07;;;28.60;99.90;;;;;;4990029;28;20535;-72
2023/08/16 09:05:57;;;;;;;6.75;4.65;;;28.30;99.90;;;;;;4992168;28;20259;-74
2023/08/16 09:08:23;;;;;;;5.32;4.25;;;27.90;99.90;;;;;;4987444;28;20201;-71
2023/08/16 09:10:52;;;;;;;7.15;3.55;;;27.60;99.90;;;;;;4987556;28;20205;-74
2023/08/16 09:13:19;;;;;;;6.80;4.85;;;28.00;99.90;;;;;;4987575;28;20264;-74
2023/08/16 09:15:44;;;;;;;9.25;3.97;;;29.30;99.90;;;;;;4987987;28;20210;-72
2023/08/16 09:18:12;;;;;;;5.78;4.32;;;30.70;99.90;;;;;;4985570;28;20316;-75
2023/08/16 09:20:39;;;;;;;6.50;3.80;;;31.50;99.90;;;;;;5000162;28;20222;-74
2023/08/16 09:23:05;;;;;;;5.55;4.13;;;32.20;99.90;;;;;;4985247;28;20209;-73
2023/08/16 09:25:31;;;;;;;8.45;4.10;;;32.60;99.90;;;;;;4981646;28;20186;-74
2023/08/16 09:27:57;;;;;;;4.22;3.25;;;32.80;99.90;;;;;;4984770;28;20706;-74
2023/08/16 09:30:26;;;;;;;3.75;3.45;;;32.60;99.90;;;;;;4980856;28;20639;-73
2023/08/16 09:32:53;;;;;;;5.50;3.33;;;32.50;99.90;;;;;;5000414;28;20582;-72
2023/08/16 09:35:19;;;;;;;3.78;3.20;;;32.90;99.90;;;;;;4986854;28;20210;-73
2023/08/16 09:37:45;;;;;;;6.50;3.13;;;33.20;99.90;;;;;;4988351;28;20592;-76
2023/08/16 09:40:11;;;;;;;5.18;3.60;;;33.00;99.90;;;;;;4991920;28;20202;-74
2023/08/16 09:42:37;;;;;;;4.40;3.35;;;32.80;99.90;;;;;;4988199;28;20602;-76
2023/08/16 09:45:03;;;;;;;4.03;3.42;;;32.10;99.90;;;;;;4988480;28;20209;-74
2023/08/16 09:47:30;;;;;;;4.40;3.28;;;31.50;99.90;;;;;;4989075;28;20651;-73
2023/08/16 09:50:00;;;;;;;4.45;3.80;;;31.70;99.90;;;;;;4987431;28;20213;-74
2023/08/16 09:52:28;;;;;;;5.38;3.90;;;32.00;99.90;;;;;;4987305;28;20170;-74
2023/08/16 09:54:55;;;;;;;4.57;3.60;;;32.50;99.90;;;;;;4986092;28;20248;-76
2023/08/16 09:57:21;;;;;;;5.55;3.92;;;32.30;99.90;;;;;;4985798;28;20260;-74
2023/08/16 09:59:48;;;;;;;4.35;3.45;;;32.20;99.90;;;;;;4983752;28;20301;-74
2023/08/16 10:02:14;;;;;;;5.40;4.30;;;32.10;99.90;;;;;;4989278;28;20205;-74
2023/08/16 10:04:40;;;;;;;5.13;4.28;;;32.20;99.90;;;;;;4987549;28;20253;-74
2023/08/16 10:07:06;;;;;;;5.13;3.53;;;32.20;99.90;;;;;;4983801;28;20178;-74
2023/08/16 10:09:33;;;;;;;6.85;3.67;;;32.40;99.90;;;;;;4979787;28;20206;-76
2023/08/16 10:12:02;;;;;;;6.28;4.20;;;32.40;99.90;;;;;;4986696;28;20709;-74
2023/08/16 10:14:29;;;;;;;5.82;4.68;;;32.20;99.90;;;;;;4986686;28;20213;-74
2023/08/16 10:17:00;;;;;;;7.85;5.78;;;32.40;99.90;;;;;;4991550;28;20201;-76
2023/08/16 10:19:33;;;;;;;5.72;4.72;;;32.30;99.90;;;;;;4990464;28;20178;-74
2023/08/16 10:21:59;;;;;;;5.55;4.13;;;32.30;99.90;;;;;;4986610;28;20174;-74
2023/08/16 10:24:29;;;;;;;5.35;3.50;;;32.30;99.90;;;;;;4990985;28;20223;-75
2023/08/16 10:26:57;;;;;;;4.18;3.25;;;32.30;99.90;;;;;;4990188;28;20213;-74
2023/08/16 10:29:25;;;;;;;5.57;4.97;;;32.20;99.90;;;;;;4992308;28;20275;-73
2023/08/16 10:31:53;;;;;;;9.07;7.57;;;32.10;99.90;;;;;;4990225;28;20312;-74
2023/08/16 10:34:21;;;;;;;4.63;4.22;;;32.10;99.90;;;;;;4991774;28;20269;-74
2023/08/16 10:36:47;;;;;;;5.13;3.63;;;32.40;99.90;;;;;;4986763;28;20213;-74
2023/08/16 10:39:24;;;;;;;5.90;4.10;;;32.10;99.90;;;;;;4993829;28;20241;-74
2023/08/16 10:41:51;;;;;;;5.47;3.97;;;32.30;99.90;;;;;;4985792;28;20592;-74
2023/08/16 10:44:23;;;;;;;5.82;4.97;;;31.80;99.90;;;;;;4985531;28;20229;-75
2023/08/16 10:46:50;;;;;;;8.25;5.13;;;31.20;99.90;;;;;;4983905;28;20220;-74
2023/08/16 10:49:16;;;;;;;6.63;4.35;;;30.70;99.90;;;;;;4990485;28;20182;-74
2023/08/16 10:51:53;;;;;;;7.15;3.75;;;30.30;99.90;;;;;;4992578;28;20217;-74
2023/08/16 10:54:30;;;;;;;5.28;3.50;;;30.70;99.90;;;;;;4998264;28;20205;-74
2023/08/16 10:57:01;;;;;;;7.60;3.65;;;30.90;99.90;;;;;;4991968;28;20684;-73
2023/08/16 10:59:36;;;;;;;3.75;3.20;;;31.00;99.90;;;;;;4991949;28;20217;-76
2023/08/16 11:02:15;;;;;;;3.47;3.17;;;31.00;99.90;;;;;;4993124;28;20692;-74
2023/08/16 11:04:46;;;;;;;8.25;7.32;;;31.00;99.90;;;;;;4987057;28;20237;-74
2023/08/16 11:07:12;;;;;;;4.75;4.22;;;31.40;99.90;;;;;;4988528;28;20247;-74
2023/08/16 11:09:41;;;;;;;4.13;3.72;;;31.30;99.90;;;;;;4989790;28;20209;-72
2023/08/16 11:12:07;;;;;;;7.32;5.95;;;31.20;99.90;;;;;;4988082;28;20229;-74
2023/08/16 11:14:36;;;;;;;5.75;3.90;;;31.20;99.90;;;;;;4985234;28;20233;-74
2023/08/16 11:17:03;;;;;;;6.45;3.65;;;31.20;99.90;;;;;;4985021;28;20217;-74
2023/08/16 11:19:29;;;;;;;5.43;4.05;;;31.60;99.90;;;;;;4984722;28;20652;-74
2023/08/16 11:21:58;;;;;;;5.15;3.63;;;31.90;99.90;;;;;;4985073;28;20224;-74
2023/08/16 11:24:24;;;;;;;4.88;3.53;;;31.50;99.90;;;;;;4991897;28;20276;-72
2023/08/16 11:26:52;;;;;;;4.65;3.25;;;31.60;99.90;;;;;;4992316;28;20218;-73
2023/08/16 11:29:18;;;;;;;4.53;4.13;;;31.20;99.90;;;;;;4992422;28;20221;-74
2023/08/16 11:31:44;;;;;;;3.88;3.38;;;31.30;99.90;;;;;;4990400;28;20225;-74
2023/08/16 11:34:10;;;;;;;3.83;3.40;;;31.20;99.90;;;;;;4991433;28;20562;-74
2023/08/16 11:36:39;;;;;;;15.48;11.63;;;31.30;99.90;;;;;;4989480;28;20202;-73
2023/08/16 11:39:08;;;;;;;14.98;11.68;;;31.90;99.90;;;;;;4991975;28;20210;-75
2023/08/16 11:41:34;;;;;;;5.78;3.97;;;32.10;99.90;;;;;;4988131;28;20323;-73
2023/08/16 11:44:00;;;;;;;5.60;4.05;;;32.10;99.90;;;;;;4988013;28;20233;-73
2023/08/16 11:46:26;;;;;;;4.47;3.80;;;32.10;99.90;;;;;;4986557;28;20588;-72
2023/08/16 11:48:52;;;;;;;6.55;3.72;;;31.90;99.90;;;;;;4988731;28;20182;-74
2023/08/16 11:51:18;;;;;;;6.20;3.75;;;31.10;99.90;;;;;;4990147;28;20217;-74
2023/08/16 11:53:44;;;;;;;8.73;4.15;;;31.20;99.90;;;;;;4981670;28;20203;-75
2023/08/16 11:56:09;;;;;;;4.15;3.05;;;31.10;99.90;;;;;;4986226;28;20285;-74
2023/08/16 11:58:46;;;;;;;4.15;3.10;;;30.90;99.90;;;;;;4982836;28;20229;-74
2023/08/16 12:01:14;;;;;;;6.00;3.92;;;31.00;99.90;;;;;;4985728;28;20305;-74
2023/08/16 12:03:45;;;;;;;3.38;3.08;;;31.00;99.90;;;;;;4992375;28;20280;-76
2023/08/16 12:06:11;;;;;;;5.20;3.40;;;30.90;99.90;;;;;;4983039;28;20755;-74
2023/08/16 12:08:55;;;;;;;3.47;2.95;;;31.00;99.90;;;;;;4991389;28;20564;-74
2023/08/16 12:11:34;;;;;;;5.75;3.30;;;30.70;99.90;;;;;;4988852;28;20260;-74
2023/08/16 12:14:03;;;;;;;4.20;3.22;;;30.60;99.90;;;;;;4988293;28;20210;-74
2023/08/16 12:16:29;;;;;;;4.68;3.50;;;30.50;99.90;;;;;;4986668;28;20686;-75
2023/08/16 12:18:56;;;;;;;5.25;3.97;;;30.30;99.90;;;;;;4988817;28;20193;-74
2023/08/16 12:21:22;;;;;;;4.78;4.28;;;30.20;99.90;;;;;;4990108;28;20285;-72
2023/08/16 12:23:47;;;;;;;3.80;3.45;;;30.00;99.90;;;;;;4984785;28;20241;-74
2023/08/16 12:26:14;;;;;;;5.25;4.05;;;30.00;99.90;;;;;;4986796;28;20212;-75
2023/08/16 12:28:40;;;;;;;5.43;3.85;;;30.00;99.90;;;;;;4983934;28;20232;-74
2023/08/16 12:31:06;;;;;;;4.90;3.50;;;30.10;99.90;;;;;;4986385;28;20221;-74
2023/08/16 12:33:32;;;;;;;5.47;3.17;;;30.20;99.90;;;;;;4990617;28;20237;-74
2023/08/16 12:35:58;;;;;;;3.67;3.30;;;30.10;99.90;;;;;;4983173;28;20234;-74
2023/08/16 12:38:24;;;;;;;3.65;3.13;;;30.10;99.90;;;;;;4989218;28;20872;-72
2023/08/16 12:40:49;;;;;;;5.60;4.53;;;30.20;99.90;;;;;;4991249;28;20225;-73
2023/08/16 12:43:15;;;;;;;6.40;3.75;;;30.30;99.90;;;;;;4990593;28;20201;-74